Time;durP1;ratioP1;P1;durP2;ratioP2;P2;SDS_P1;SDS_P2;PMS_P1;PMS_P2;Temp;Humidity;BMP_temperature;BMP_pressure;BME280_temperature;BME280_humidity;BME280_pressure;Samples;Min_cycle;Max_cycle;Signal;HPM_P1;HPM_P2
2022/02/08 00:02:25;;;;;;;;;;;;;;;18.65;45.34;101261.94;4429559;32;20012;-71
2022/02/08 00:04:51;;;;;;;;;;;;;;;18.52;45.24;101259.28;4431940;32;20070;-71
2022/02/08 00:07:16;;;;;;;;;;;;;;;18.76;44.88;101263.00;4428687;32;19992;-71
2022/02/08 00:09:42;;;;;;;;;;;;;;;18.95;44.36;101263.69;4427725;32;20003;-71
2022/02/08 00:12:08;;;;;;;;;;;;;;;18.88;44.29;101267.69;4427774;32;20282;-71
2022/02/08 00:14:34;;;;;;;;;;;;;;;18.68;44.84;101263.84;4427427;32;20627;-71
2022/02/08 00:16:59;;;;;;;;;;;;;;;18.46;45.33;101258.38;4425043;32;19965;-72
2022/02/08 00:19:25;;;;;;;;;;;;;;;18.74;44.75;101250.47;4428581;32;19957;-72
2022/02/08 00:21:50;;;;;;;;;;;;;;;18.64;44.95;101248.94;4410091;32;19972;-72
2022/02/08 00:24:16;;;;;;;;;;;;;;;18.69;44.84;101242.59;4431540;32;20009;-72
2022/02/08 00:26:42;;;;;;;;;;;;;;;18.66;44.88;101232.16;4429255;32;19988;-72
2022/02/08 00:29:07;;;;;;;;;;;;;;;18.46;45.35;101243.31;4427503;32;20016;-72
2022/02/08 00:31:33;;;;;;;;;;;;;;;18.46;45.40;101240.47;4428010;32;19953;-71
2022/02/08 00:33:58;;;;;;;;;;;;;;;18.45;45.51;101234.00;4432245;32;19953;-71
2022/02/08 00:36:24;;;;;;;;;;;;;;;18.48;45.25;101233.03;4427012;32;19957;-71
2022/02/08 00:38:52;;;;;;;;;;;;;;;18.37;45.84;101227.03;4415035;32;19946;-71
2022/02/08 00:41:18;;;;;;;;;;;;;;;18.21;46.21;101229.44;4423918;32;19957;-71
2022/02/08 00:49:14;;;;;;;;;;;;;;;18.62;45.37;101228.69;3951188;32;15726575;-71
2022/02/08 00:51:44;;;;;;;;;;;;;;;18.62;45.37;101228.69;4425888;32;20326;-71
2022/02/08 00:54:10;;;;;;;;;;;;;;;18.33;45.77;101217.84;4417273;32;20011;-71
2022/02/08 00:56:36;;;;;;;;;;;;;;;18.36;45.46;101214.06;4428977;32;20389;-71
2022/02/08 00:59:03;;;;;;;;;;;;;;;18.33;45.51;101206.47;4430516;32;20005;-71
2022/02/08 01:01:33;;;;;;;;;;;;;;;18.19;45.97;101221.38;4429469;32;20094;-71
2022/02/08 01:03:59;;;;;;;;;;;;;;;18.09;45.99;101221.88;4427940;32;20283;-71
2022/02/08 01:06:24;;;;;;;;;;;;;;;18.18;45.99;101225.50;4431018;32;19949;-71
2022/02/08 01:08:52;;;;;;;;;;;;;;;18.25;45.77;101225.16;4432304;32;19984;-71
2022/02/08 01:11:19;;;;;;;;;;;;;;;18.00;46.27;101219.84;4426176;32;20018;-71
2022/02/08 01:13:44;;;;;;;;;;;;;;;18.22;45.72;101213.94;4428977;32;20090;-71
2022/02/08 01:16:10;;;;;;;;;;;;;;;18.41;45.34;101221.19;4428765;32;20016;-71
2022/02/08 01:18:40;;;;;;;;;;;;;;;18.22;45.71;101213.94;4425557;32;19986;-71
2022/02/08 01:21:06;;;;;;;;;;;;;;;18.24;45.91;101203.66;4425031;32;19987;-71
2022/02/08 01:23:32;;;;;;;;;;;;;;;18.26;45.77;101206.81;4428773;32;19993;-71
2022/02/08 01:26:02;;;;;;;;;;;;;;;18.41;45.15;101204.09;4427257;32;19996;-71
2022/02/08 01:28:45;;;;;;;;;;;;;;;18.54;45.15;101204.66;4423906;32;20421;-71
2022/02/08 01:31:14;;;;;;;;;;;;;;;18.43;45.26;101205.19;4426194;32;20039;-71
2022/02/08 01:44:25;;;;;;;;;;;;;;;18.85;44.41;101199.41;4432192;32;20315;-72
2022/02/08 01:49:49;;;;;;;;;;;;;;;18.33;44.98;101197.13;4434075;32;19961;-72
2022/02/08 01:52:15;;;;;;;;;;;;;;;18.64;44.60;101195.56;4431703;32;20613;-72
2022/02/08 01:54:41;;;;;;;;;;;;;;;18.98;43.78;101194.25;4435105;32;19957;-72
2022/02/08 01:57:07;;;;;;;;;;;;;;;18.84;43.95;101195.00;4434299;32;20003;-72
2022/02/08 01:59:33;;;;;;;;;;;;;;;19.03;43.68;101185.03;4432589;32;20386;-72
2022/02/08 02:01:58;;;;;;;;;;;;;;;19.12;43.37;101191.44;4431424;32;19953;-72
2022/02/08 02:04:24;;;;;;;;;;;;;;;18.82;43.91;101191.81;4432310;32;19992;-71
2022/02/08 02:06:50;;;;;;;;;;;;;;;18.92;43.66;101187.62;4434750;32;20346;-72
2022/02/08 02:09:15;;;;;;;;;;;;;;;18.82;43.93;101201.19;4434989;32;20130;-72
2022/02/08 02:11:41;;;;;;;;;;;;;;;18.65;44.34;101184.97;4433304;32;19957;-72
2022/02/08 02:14:07;;;;;;;;;;;;;;;18.80;44.09;101175.19;4435357;32;19957;-72
2022/02/08 02:19:11;;;;;;;;;;;;;;;19.50;43.13;101170.72;3951862;32;15724511;-72
2022/02/08 02:21:37;;;;;;;;;;;;;;;19.50;43.13;101170.72;4429371;32;19953;-72
2022/02/08 02:27:10;;;;;;;;;;;;;;;18.70;44.55;101167.19;4426936;32;19967;-72
2022/02/08 02:29:36;;;;;;;;;;;;;;;18.81;44.19;101156.81;4429985;32;20023;-72
2022/02/08 02:32:02;;;;;;;;;;;;;;;18.62;44.74;101152.50;4431227;32;20340;-72
2022/02/08 02:34:28;;;;;;;;;;;;;;;18.65;44.92;101170.72;4429939;32;19973;-72
2022/02/08 02:36:54;;;;;;;;;;;;;;;18.76;44.43;101170.94;4428698;32;19985;-72
2022/02/08 02:39:22;;;;;;;;;;;;;;;18.58;45.06;101159.66;4430535;32;20772;-72
2022/02/08 02:41:47;;;;;;;;;;;;;;;18.21;45.64;101164.72;4428853;32;19969;-72
2022/02/08 02:44:18;;;;;;;;;;;;;;;18.44;45.43;101146.13;4428125;32;20311;-72
2022/02/08 02:46:43;;;;;;;;;;;;;;;18.38;45.37;101151.69;4428996;32;19964;-72
2022/02/08 02:49:09;;;;;;;;;;;;;;;18.06;46.11;101140.22;4432874;32;19993;-72
2022/02/08 02:51:34;;;;;;;;;;;;;;;17.70;46.99;101144.78;4430472;32;20000;-72
2022/02/08 02:54:00;;;;;;;;;;;;;;;18.18;46.15;101145.75;4429491;32;20013;-72
2022/02/08 02:56:27;;;;;;;;;;;;;;;18.13;46.13;101149.22;4429512;32;20005;-72
2022/02/08 02:59:00;;;;;;;;;;;;;;;18.10;46.39;101146.56;4429642;32;19953;-72
2022/02/08 03:20:32;;;;;;;;;;;;;;;18.71;45.31;101121.09;3951813;32;15723581;-72
2022/02/08 03:22:57;;;;;;;;;;;;;;;18.53;45.63;101128.97;4423407;32;19965;-71
2022/02/08 03:25:22;;;;;;;;;;;;;;;18.75;44.80;101135.16;4422490;32;20327;-72
2022/02/08 03:27:52;;;;;;;;;;;;;;;19.02;44.49;101121.47;4425018;32;20267;-71
2022/02/08 03:30:20;;;;;;;;;;;;;;;18.98;44.56;101128.66;4422094;32;19968;-72
2022/02/08 03:32:49;;;;;;;;;;;;;;;18.80;44.95;101131.63;4422369;32;19960;-71
2022/02/08 03:35:20;;;;;;;;;;;;;;;18.72;45.02;101122.66;4411091;32;19989;-71
2022/02/08 03:37:57;;;;;;;;;;;;;;;18.50;45.68;101127.09;4421120;32;19957;-71
2022/02/08 03:40:37;;;;;;;;;;;;;;;18.91;44.85;101126.19;4421773;32;20319;-71
2022/02/08 03:43:37;;;;;;;;;;;;;;;18.91;44.69;101140.44;4422349;32;20352;-71
2022/02/08 03:45:52;;;;;;;;;;;;;;;19.00;44.57;101121.19;4422383;32;19993;-71
2022/02/08 03:48:21;;;;;;;;;;;;;;;19.17;44.00;101127.22;4422500;32;19988;-71
2022/02/08 03:50:50;;;;;;;;;;;;;;;18.52;45.75;101144.47;4421643;32;19968;-71
2022/02/08 03:53:18;;;;;;;;;;;;;;;18.73;45.29;101135.66;4420685;32;20001;-71
2022/02/08 03:55:45;;;;;;;;;;;;;;;18.99;44.77;101150.97;4422228;32;19984;-71
2022/02/08 03:58:11;;;;;;;;;;;;;;;18.75;45.12;101153.03;4423108;32;19993;-71
2022/02/08 04:00:48;;;;;;;;;;;;;;;18.71;45.43;101143.88;4424658;32;20351;-70
2022/02/08 04:03:14;;;;;;;;;;;;;;;18.94;44.96;101150.88;4423605;32;19950;-71
2022/02/08 04:05:44;;;;;;;;;;;;;;;18.83;45.20;101145.72;4422884;32;19953;-70
2022/02/08 04:08:12;;;;;;;;;;;;;;;18.56;45.90;101151.59;4424157;32;20000;-70
2022/02/08 04:10:39;;;;;;;;;;;;;;;18.92;45.23;101154.22;4422599;32;19999;-71
2022/02/08 04:38:44;;;;;;;;;;;;;;;19.46;44.59;101145.22;4433855;32;20945;-71
2022/02/08 04:40:53;;;;;;;;;;;;;;;19.17;44.66;101150.84;4434765;32;19961;-71
2022/02/08 04:46:05;;;;;;;;;;;;;;;19.43;44.78;101151.13;3952067;32;15726630;-71
2022/02/08 04:48:44;;;;;;;;;;;;;;;19.43;44.78;101151.13;4432343;32;19971;-71
2022/02/08 04:51:17;;;;;;;;;;;;;;;19.02;45.23;101157.78;4431212;32;20449;-71
2022/02/08 04:53:52;;;;;;;;;;;;;;;19.31;44.43;101140.78;4434153;32;20390;-71
2022/02/08 05:43:40;;;;;;;;;;;;;;;19.37;45.61;101151.03;4415547;32;19957;-72
2022/02/08 05:46:02;;;;;;;;;;;;;;;19.26;45.74;101162.22;4428449;32;20350;-72
2022/02/08 05:48:28;;;;;;;;;;;;;;;19.47;45.15;101146.00;4428660;32;19976;-70
2022/02/08 05:50:59;;;;;;;;;;;;;;;19.31;45.60;101161.53;4428592;32;20011;-70
2022/02/08 05:53:42;;;;;;;;;;;;;;;19.38;45.39;101163.22;4433368;32;20007;-70
2022/02/08 05:56:08;;;;;;;;;;;;;;;19.55;44.96;101159.41;4428824;32;19997;-70
2022/02/08 05:58:34;;;;;;;;;;;;;;;19.34;45.45;101156.91;4428701;32;19971;-71
2022/02/08 06:01:00;;;;;;;;;;;;;;;19.39;45.53;101174.16;4427368;32;20026;-71
2022/02/08 06:03:26;;;;;;;;;;;;;;;19.53;45.21;101179.09;4428031;32;20043;-71
2022/02/08 06:05:52;;;;;;;;;;;;;;;19.24;45.97;101170.44;4426083;32;19972;-71
2022/02/08 06:08:17;;;;;;;;;;;;;;;19.52;45.33;101177.50;4427651;32;20596;-71
2022/02/08 06:10:49;;;;;;;;;;;;;;;19.35;45.67;101170.69;4429322;32;19960;-71
2022/02/08 06:13:16;;;;;;;;;;;;;;;19.63;45.06;101174.06;4428067;32;20311;-71
2022/02/08 06:15:44;;;;;;;;;;;;;;;19.37;45.62;101175.91;4426598;32;20251;-71
2022/02/08 06:18:10;;;;;;;;;;;;;;;19.90;44.73;101175.84;4430883;32;19990;-71
2022/02/08 06:20:36;;;;;;;;;;;;;;;19.38;45.72;101181.12;4428047;32;20231;-71
2022/02/08 06:23:02;;;;;;;;;;;;;;;19.71;45.07;101187.50;4428232;32;20291;-71
2022/02/08 06:25:28;;;;;;;;;;;;;;;19.68;45.13;101190.53;4426307;32;19984;-71
2022/02/08 06:27:53;;;;;;;;;;;;;;;19.16;46.12;101191.28;4428561;32;20332;-71
2022/02/08 06:30:22;;;;;;;;;;;;;;;18.94;46.80;101185.09;4430182;32;20419;-71
2022/02/08 06:32:49;;;;;;;;;;;;;;;19.35;45.79;101192.72;4427762;32;20339;-71
2022/02/08 06:35:20;;;;;;;;;;;;;;;19.19;46.21;101190.31;4427129;32;19997;-73
2022/02/08 06:37:46;;;;;;;;;;;;;;;19.09;46.66;101191.66;4426027;32;20102;-71
2022/02/08 06:40:12;;;;;;;;;;;;;;;19.29;46.15;101194.69;4426192;32;19973;-71
2022/02/08 06:42:40;;;;;;;;;;;;;;;19.11;46.39;101189.09;4426591;32;20304;-71
2022/02/08 06:45:07;;;;;;;;;;;;;;;19.05;46.62;101202.47;4431552;32;19965;-72
2022/02/08 06:47:33;;;;;;;;;;;;;;;19.15;46.36;101189.72;4430089;32;19954;-71
2022/02/08 06:49:59;;;;;;;;;;;;;;;19.15;46.49;101192.56;4425150;32;20132;-71
2022/02/08 06:52:25;;;;;;;;;;;;;;;19.05;46.69;101199.63;4413897;32;19957;-71
2022/02/08 06:54:51;;;;;;;;;;;;;;;19.15;46.13;101201.12;4422534;32;19962;-71
2022/02/08 06:57:18;;;;;;;;;;;;;;;18.93;47.18;101203.50;4418534;32;20010;-72
2022/02/08 06:59:50;;;;;;;;;;;;;;;18.97;47.05;101201.25;4416228;32;19949;-72
2022/02/08 07:02:16;;;;;;;;;;;;;;;18.72;47.58;101207.41;4414170;32;20016;-72
2022/02/08 07:04:42;;;;;;;;;;;;;;;19.01;47.08;101201.84;4417215;32;19961;-72
2022/02/08 07:07:12;;;;;;;;;;;;;;;19.17;46.70;101201.41;4416762;32;20503;-72
2022/02/08 07:09:38;;;;;;;;;;;;;;;19.23;46.65;101196.59;4414997;32;19962;-72
2022/02/08 07:12:04;;;;;;;;;;;;;;;19.07;47.01;101194.19;4414356;32;20271;-72
2022/02/08 07:14:32;;;;;;;;;;;;;;;19.10;46.63;101198.94;4417943;32;19988;-72
2022/02/08 07:16:58;;;;;;;;;;;;;;;18.77;47.78;101201.84;4419158;32;20287;-72
2022/02/08 07:19:23;;;;;;;;;;;;;;;19.00;47.26;101200.28;4418517;32;20367;-72
2022/02/08 07:21:49;;;;;;;;;;;;;;;19.17;46.95;101202.19;4414400;32;20022;-72
2022/02/08 07:24:16;;;;;;;;;;;;;;;19.36;46.43;101202.87;4417902;32;19993;-72
2022/02/08 07:26:42;;;;;;;;;;;;;;;19.24;46.85;101207.53;4414502;32;20001;-72
2022/02/08 07:29:08;;;;;;;;;;;;;;;19.23;46.99;101213.72;4417472;32;19971;-72
2022/02/08 07:31:39;;;;;;;;;;;;;;;19.05;47.34;101225.28;4416046;32;19993;-72
2022/02/08 07:34:17;;;;;;;;;;;;;;;18.99;47.34;101221.53;4417610;32;20039;-72
2022/02/08 07:39:27;;;;;;;;;;;;;;;19.30;46.92;101210.56;3949153;32;15857586;-72
2022/02/08 07:41:53;;;;;;;;;;;;;;;19.23;46.86;101222.28;4430048;32;20368;-72
2022/02/08 07:44:20;;;;;;;;;;;;;;;19.27;46.88;101220.09;4425597;32;20017;-72
2022/02/08 07:46:45;;;;;;;;;;;;;;;19.38;46.68;101221.09;4427845;32;19949;-72
2022/02/08 07:49:13;;;;;;;;;;;;;;;19.36;46.71;101217.94;4409078;32;19995;-72
2022/02/08 07:51:40;;;;;;;;;;;;;;;19.41;46.58;101225.84;4424947;32;19953;-73
2022/02/08 07:54:05;;;;;;;;;;;;;;;19.39;46.41;101210.47;4427991;32;20001;-72
2022/02/08 07:56:31;;;;;;;;;;;;;;;19.55;46.16;101225.06;4434264;32;20269;-72
2022/02/08 07:58:57;;;;;;;;;;;;;;;19.35;46.59;101221.28;4420402;32;20614;-72
2022/02/08 08:01:23;;;;;;;;;;;;;;;19.41;46.21;101225.84;4418550;32;20056;-71
2022/02/08 08:03:48;;;;;;;;;;;;;;;19.43;46.52;101228.97;4427064;32;19961;-72
2022/02/08 08:06:16;;;;;;;;;;;;;;;19.40;46.52;101229.19;4423066;32;20313;-73
2022/02/08 08:08:42;;;;;;;;;;;;;;;19.28;46.75;101233.87;4407016;32;19999;-74
2022/02/08 08:11:14;;;;;;;;;;;;;;;19.74;45.62;101232.22;4420997;32;20009;-73
2022/02/08 08:13:48;;;;;;;;;;;;;;;19.67;45.62;101243.22;4423493;32;20000;-73
2022/02/08 08:16:19;;;;;;;;;;;;;;;19.54;46.00;101242.69;4419763;32;20288;-73
2022/02/08 08:18:58;;;;;;;;;;;;;;;19.39;46.11;101245.50;4425524;32;20102;-74
2022/02/08 08:21:24;;;;;;;;;;;;;;;19.61;45.74;101248.03;4421988;32;20057;-72
2022/02/08 08:23:49;;;;;;;;;;;;;;;19.75;45.58;101253.78;4427016;32;19996;-74
2022/02/08 08:26:15;;;;;;;;;;;;;;;19.86;45.37;101261.78;4425311;32;19965;-74
2022/02/08 08:28:40;;;;;;;;;;;;;;;19.69;45.79;101267.16;4420947;32;20011;-74
2022/02/08 08:31:06;;;;;;;;;;;;;;;19.32;46.60;101259.34;4424659;32;19992;-73
2022/02/08 08:33:31;;;;;;;;;;;;;;;19.41;45.99;101259.28;4417912;32;19976;-74
2022/02/08 08:35:57;;;;;;;;;;;;;;;19.66;45.87;101264.47;4423530;32;19958;-74
2022/02/08 08:38:25;;;;;;;;;;;;;;;19.63;45.84;101259.75;4420784;32;20011;-74
2022/02/08 08:41:01;;;;;;;;;;;;;;;19.61;45.50;101259.47;4422132;32;19995;-74
2022/02/08 08:49:11;;;;;;;;;;;;;;;19.58;45.11;101249.00;4413019;32;20883;-73
2022/02/08 08:51:46;;;;;;;;;;;;;;;20.01;44.74;101267.50;4409353;32;19959;-74
2022/02/08 08:54:12;;;;;;;;;;;;;;;19.97;44.63;101255.47;4409356;32;20311;-74
2022/02/08 08:56:40;;;;;;;;;;;;;;;19.82;44.88;101248.97;4411791;32;20589;-73
2022/02/08 08:59:06;;;;;;;;;;;;;;;20.12;44.24;101262.78;4409975;32;20468;-73
2022/02/08 09:01:32;;;;;;;;;;;;;;;20.15;44.08;101269.62;4407758;32;20008;-73
2022/02/08 09:03:57;;;;;;;;;;;;;;;20.10;44.31;101259.63;4411440;32;20064;-73
2022/02/08 09:06:23;;;;;;;;;;;;;;;20.31;43.72;101272.75;4413487;32;20023;-74
2022/02/08 09:08:49;;;;;;;;;;;;;;;20.41;43.36;101265.66;4411009;32;20000;-73
2022/02/08 09:11:22;;;;;;;;;;;;;;;20.46;43.34;101273.53;4409213;32;19957;-74
2022/02/08 09:13:57;;;;;;;;;;;;;;;20.47;43.47;101278.00;4411228;32;19957;-73
2022/02/08 09:16:38;;;;;;;;;;;;;;;20.65;43.19;101282.69;4410598;32;20444;-73
2022/02/08 09:20:04;;;;;;;;;;;;;;;21.01;42.30;101274.44;4415235;32;20001;-73
2022/02/08 09:30:04;;;;;;;;;;;;;;;21.96;40.54;101280.13;4420134;32;20012;-74
2022/02/08 09:33:01;;;;;;;;;;;;;;;21.36;41.27;101280.16;4424155;32;20048;-73
2022/02/08 09:35:17;;;;;;;;;;;;;;;21.18;41.39;101275.50;4420438;32;20052;-74
2022/02/08 09:37:43;;;;;;;;;;;;;;;21.16;41.50;101283.78;4423883;32;19996;-74
2022/02/08 09:40:09;;;;;;;;;;;;;;;21.20;41.58;101269.28;4420325;32;20044;-73
2022/02/08 09:42:38;;;;;;;;;;;;;;;21.23;41.41;101285.44;4421420;32;20005;-74
2022/02/08 09:45:05;;;;;;;;;;;;;;;21.27;41.23;101283.91;4421566;32;20016;-74
2022/02/08 09:47:40;;;;;;;;;;;;;;;21.28;41.38;101276.12;4423446;32;20276;-75
2022/02/08 09:50:14;;;;;;;;;;;;;;;21.10;41.49;101277.19;4421583;32;20724;-74
2022/02/08 09:52:40;;;;;;;;;;;;;;;21.34;41.38;101282.72;4422174;32;20625;-72
2022/02/08 09:55:06;;;;;;;;;;;;;;;21.64;40.64;101287.78;4419803;32;20417;-74
2022/02/08 09:57:31;;;;;;;;;;;;;;;21.55;40.35;101281.44;4426093;32;20298;-75
2022/02/08 09:59:57;;;;;;;;;;;;;;;21.20;41.34;101287.22;4420151;32;20759;-74
2022/02/08 10:02:23;;;;;;;;;;;;;;;21.22;41.56;101287.50;4421531;32;19965;-75
2022/02/08 10:05:05;;;;;;;;;;;;;;;21.07;41.95;101283.91;4422592;32;19961;-75
2022/02/08 10:07:33;;;;;;;;;;;;;;;20.86;42.41;101287.19;4418568;32;19961;-74
2022/02/08 10:10:00;;;;;;;;;;;;;;;21.43;41.47;101286.25;4421554;32;20439;-74
2022/02/08 10:12:46;;;;;;;;;;;;;;;21.34;41.69;101285.59;4417230;32;20449;-75
2022/02/08 10:21:39;;;;;;;;;;;;;;;21.40;41.45;101295.03;4422772;32;19999;-74
2022/02/08 10:23:30;;;;;;;;;;;;;;;21.84;40.98;101286.25;4417790;32;20166;-74
2022/02/08 10:26:07;;;;;;;;;;;;;;;21.50;nan;101294.41;4418000;32;20023;-74
2022/02/08 10:28:51;;;;;;;;;;;;;;;21.66;40.99;101296.69;4418618;32;20025;-74
2022/02/08 10:39:26;;;;;;;;;;;;;;;22.25;40.37;101297.13;4420298;32;20379;-74
2022/02/08 10:41:51;;;;;;;;;;;;;;;22.41;40.22;101304.31;4419929;32;20029;-74
2022/02/08 10:44:17;;;;;;;;;;;;;;;22.46;39.90;101309.31;4422485;32;20032;-75
2022/02/08 10:46:43;;;;;;;;;;;;;;;22.56;39.69;101313.59;4425377;32;20403;-75
2022/02/08 10:49:10;;;;;;;;;;;;;;;22.74;39.22;101307.50;4421741;32;20386;-75
2022/02/08 10:51:47;;;;;;;;;;;;;;;22.47;39.98;101308.00;4420337;32;20492;-74
2022/02/08 10:54:19;;;;;;;;;;;;;;;22.21;40.02;101322.34;4409392;32;20001;-74
2022/02/08 10:56:47;;;;;;;;;;;;;;;22.75;39.64;101311.94;4423803;32;19957;-74
2022/02/08 10:59:19;;;;;;;;;;;;;;;22.01;40.85;101321.59;4420030;32;20077;-74
2022/02/08 11:01:56;;;;;;;;;;;;;;;22.04;40.81;101314.87;4418185;32;19958;-74
2022/02/08 11:04:34;;;;;;;;;;;;;;;22.53;40.10;101306.81;4421524;32;20883;-74
2022/02/08 11:07:12;;;;;;;;;;;;;;;22.86;39.31;101309.16;4421255;32;20356;-74
2022/02/08 11:09:51;;;;;;;;;;;;;;;22.97;38.86;101323.59;4421225;32;19989;-74
2022/02/08 11:12:41;;;;;;;;;;;;;;;22.66;39.52;101330.12;4421117;32;19997;-73
2022/02/08 11:15:22;;;;;;;;;;;;;;;22.84;39.12;101326.91;4408160;32;20412;-72
2022/02/08 11:18:17;;;;;;;;;;;;;;;22.70;39.37;101332.78;4421104;32;20025;-73
2022/02/08 11:20:39;;;;;;;;;;;;;;;23.20;39.02;101333.94;4421267;32;19960;-72
2022/02/08 11:23:14;;;;;;;;;;;;;;;23.25;38.89;101334.00;4423237;32;20794;-72
2022/02/08 11:25:43;;;;;;;;;;;;;;;23.14;38.88;101319.53;4424073;32;19999;-75
2022/02/08 11:28:16;;;;;;;;;;;;;;;22.71;39.26;101322.88;4424023;32;20113;-74
2022/02/08 11:39:09;;;;;;;;;;;;;;;23.98;37.49;101324.47;4425430;32;20300;-74
2022/02/08 11:55:52;;;;;;;;;;;;;;;24.75;36.24;101318.06;3954951;32;15722388;-73
2022/02/08 11:58:18;;;;;;;;;;;;;;;24.75;36.24;101318.06;4426327;32;19988;-74
2022/02/08 12:00:47;;;;;;;;;;;;;;;24.01;37.27;101314.00;4428048;32;20005;-74
2022/02/08 12:03:40;;;;;;;;;;;;;;;23.06;38.93;101311.91;4425737;32;20001;-73
2022/02/08 12:06:26;;;;;;;;;;;;;;;22.83;39.73;101310.19;4421562;32;20584;-73
2022/02/08 12:08:57;;;;;;;;;;;;;;;23.11;39.07;101309.06;4427791;32;19971;-74
2022/02/08 12:11:53;;;;;;;;;;;;;;;23.44;38.47;101302.78;4425054;32;20091;-73
2022/02/08 12:48:27;;;;;;;;;;;;;;;24.52;36.27;101264.69;4421705;32;20032;-73
2022/02/08 12:58:46;;;;;;;;;;;;;;;24.94;36.00;101270.94;3952425;32;15728794;-73
2022/02/08 13:01:43;;;;;;;;;;;;;;;24.18;37.13;101278.25;4439922;32;19953;-73
2022/02/08 13:04:08;;;;;;;;;;;;;;;24.14;37.20;101283.47;4437372;32;19956;-75
2022/02/08 13:15:58;;;;;;;;;;;;;;;23.57;38.49;101254.25;4424582;32;20040;-74
2022/02/08 13:18:53;;;;;;;;;;;;;;;23.40;38.84;101262.81;4413179;32;19987;-74
2022/02/08 14:01:46;;;;;;;;;;;;;;;22.09;41.42;101249.00;4413720;32;19989;-74
2022/02/08 14:23:28;;;;;;;;;;;;;;;23.03;39.64;101244.81;3951512;32;15722593;-74
2022/02/08 15:07:17;;;;;;;;;;;;;;;22.95;39.50;101226.50;4401401;32;20097;-74
2022/02/08 15:09:43;;;;;;;;;;;;;;;22.44;40.70;101228.72;4421074;32;20768;-72
2022/02/08 15:12:14;;;;;;;;;;;;;;;22.17;41.32;101226.37;4413052;32;19997;-74
2022/02/08 15:15:08;;;;;;;;;;;;;;;22.62;40.59;101225.50;4414632;32;20687;-73
2022/02/08 15:17:25;;;;;;;;;;;;;;;22.41;40.78;101232.59;4420969;32;19964;-74
2022/02/08 15:19:53;;;;;;;;;;;;;;;22.52;40.70;101244.97;4419207;32;21032;-73
2022/02/08 15:22:19;;;;;;;;;;;;;;;22.02;41.32;101225.72;4416278;32;19980;-74
2022/02/08 15:24:45;;;;;;;;;;;;;;;21.86;41.83;101237.81;4419136;32;20686;-75
2022/02/08 15:27:13;;;;;;;;;;;;;;;21.20;43.36;101244.28;4418547;32;19971;-74
2022/02/08 15:29:39;;;;;;;;;;;;;;;21.58;42.58;101238.28;4416567;32;20014;-74
2022/02/08 15:32:07;;;;;;;;;;;;;;;21.72;42.14;101242.31;4417295;32;19996;-75
2022/02/08 15:34:33;;;;;;;;;;;;;;;21.66;42.30;101245.12;4418647;32;20718;-74
2022/02/08 15:36:58;;;;;;;;;;;;;;;21.89;41.68;101236.78;4416825;32;20032;-74
2022/02/08 15:39:24;;;;;;;;;;;;;;;21.95;42.03;101235.56;4415930;32;20309;-74
2022/02/08 15:41:50;;;;;;;;;;;;;;;22.02;41.83;101240.84;4415247;32;19966;-74
2022/02/08 15:44:20;;;;;;;;;;;;;;;21.82;42.27;101240.13;4415506;32;20417;-74
2022/02/08 15:46:46;;;;;;;;;;;;;;;21.17;43.53;101248.13;4417082;32;20271;-74
2022/02/08 15:49:13;;;;;;;;;;;;;;;21.30;43.19;101237.09;4413308;32;20018;-74
2022/02/08 15:51:43;;;;;;;;;;;;;;;21.24;43.55;101233.41;4406037;32;20005;-74
2022/02/08 15:54:44;;;;;;;;;;;;;;;21.11;43.89;101243.63;4407239;32;20000;-74
2022/02/08 16:00:22;;;;;;;;;;;;;;;21.46;43.45;101238.62;3947298;32;15724613;-75
2022/02/08 16:05:15;;;;;;;;;;;;;;;21.13;43.74;101233.25;4424418;32;21325;-76
2022/02/08 16:07:51;;;;;;;;;;;;;;;21.26;43.44;101236.53;4426531;32;19980;-75
2022/02/08 16:10:31;;;;;;;;;;;;;;;21.04;44.06;101233.37;4429029;32;20005;-74
2022/02/08 16:18:36;;;;;;;;;;;;;;;20.97;44.16;101222.38;4426451;32;20009;-74
2022/02/08 16:21:24;;;;;;;;;;;;;;;21.02;44.12;101227.38;4425171;32;19958;-75
2022/02/08 16:30:04;;;;;;;;;;;;;;;21.57;43.60;101244.50;3949235;32;15726585;-74
2022/02/08 16:56:49;;;;;;;;;;;;;;;21.30;43.15;101237.09;4448634;32;19957;-75
2022/02/08 16:59:12;;;;;;;;;;;;;;;21.61;42.53;101222.16;4437884;32;19962;-73
2022/02/08 17:01:38;;;;;;;;;;;;;;;21.52;42.46;101228.81;4449308;32;20554;-73
2022/02/08 17:04:08;;;;;;;;;;;;;;;21.28;42.96;101230.31;4437330;32;19988;-74
2022/02/08 17:06:34;;;;;;;;;;;;;;;21.37;42.95;101230.19;4453188;32;19963;-74
2022/02/08 17:09:06;;;;;;;;;;;;;;;21.21;42.81;101239.34;4450852;32;19965;-74
2022/02/08 17:11:40;;;;;;;;;;;;;;;21.16;43.06;101226.53;4449237;32;20031;-74
2022/02/08 17:14:51;;;;;;;;;;;;;;;20.77;43.84;101224.38;4448114;32;19968;-74
2022/02/08 17:45:05;;;;;;;;;;;;;;;20.39;44.95;101219.63;3952329;32;15724606;-74
2022/02/08 17:46:54;;;;;;;;;;;;;;;20.30;44.83;101214.00;4428131;32;19989;-73
2022/02/08 17:49:20;;;;;;;;;;;;;;;20.30;44.79;101211.16;4425195;32;21132;-73
2022/02/08 17:51:47;;;;;;;;;;;;;;;20.30;44.60;101196.06;4424858;32;20060;-73
2022/02/08 17:54:13;;;;;;;;;;;;;;;20.40;44.43;101206.91;4426144;32;20055;-73
2022/02/08 17:56:39;;;;;;;;;;;;;;;20.37;44.51;101201.41;4426157;32;20004;-73
2022/02/08 17:59:04;;;;;;;;;;;;;;;20.34;44.53;101200.31;4428562;32;19954;-73
2022/02/08 18:01:30;;;;;;;;;;;;;;;19.68;46.27;101202.75;4425215;32;20359;-73
2022/02/08 18:03:56;;;;;;;;;;;;;;;19.58;46.57;101201.25;4426496;32;20411;-74
2022/02/08 18:06:22;;;;;;;;;;;;;;;19.85;46.08;101205.12;4428492;32;20394;-73
2022/02/08 18:08:48;;;;;;;;;;;;;;;19.93;45.70;101187.09;4425552;32;19961;-73
2022/02/08 18:11:14;;;;;;;;;;;;;;;19.66;46.33;101193.88;4426010;32;20426;-73
2022/02/08 18:13:42;;;;;;;;;;;;;;;19.50;46.68;101180.09;4426274;32;19992;-73
2022/02/08 18:16:07;;;;;;;;;;;;;;;19.61;46.46;101194.56;4427157;32;19965;-73
2022/02/08 18:18:40;;;;;;;;;;;;;;;19.79;46.03;101207.91;4429030;32;20338;-73
2022/02/08 18:21:15;;;;;;;;;;;;;;;19.23;47.22;101191.69;4424577;32;19973;-73
2022/02/08 18:24:05;;;;;;;;;;;;;;;19.57;46.35;101205.38;4425406;32;19997;-73
2022/02/08 19:07:35;;;;;;;;;;;;;;;19.29;45.67;101178.34;3948331;32;15726454;-73
2022/02/08 19:23:40;;;;;;;;;;;;;;;19.19;45.23;101176.03;3950062;32;15727603;-73
2022/02/08 19:26:07;;;;;;;;;;;;;;;18.81;45.59;101176.78;4434809;32;19965;-73
2022/02/08 19:28:33;;;;;;;;;;;;;;;19.34;44.59;101174.84;4434510;32;20041;-73
2022/02/08 19:30:58;;;;;;;;;;;;;;;19.56;44.11;101163.06;4429529;32;20062;-73
2022/02/08 19:33:26;;;;;;;;;;;;;;;19.70;43.77;101171.63;4434421;32;20016;-73
2022/02/08 19:35:52;;;;;;;;;;;;;;;19.42;44.41;101176.03;4432709;32;19979;-73
2022/02/08 19:38:19;;;;;;;;;;;;;;;19.39;44.51;101171.28;4432446;32;20977;-73
2022/02/08 19:40:44;;;;;;;;;;;;;;;19.72;43.65;101171.94;4433610;32;20013;-73
2022/02/08 19:43:10;;;;;;;;;;;;;;;19.57;44.12;101181.75;4434702;32;20008;-73
2022/02/08 19:45:42;;;;;;;;;;;;;;;19.53;44.11;101175.44;4435798;32;19972;-73
2022/02/08 19:48:08;;;;;;;;;;;;;;;19.73;43.68;101173.50;4434749;32;19997;-73
2022/02/08 19:50:36;;;;;;;;;;;;;;;19.66;43.85;101175.94;4432990;32;20026;-73
2022/02/08 19:53:02;;;;;;;;;;;;;;;19.11;45.14;101163.41;4420059;32;20733;-73
2022/02/08 19:58:11;;;;;;;;;;;;;;;19.70;44.26;101160.19;3968303;31;15720008;-73
2022/02/08 20:00:38;;;;;;;;;;;;;;;19.70;44.26;101160.19;4442197;32;19957;-72
2022/02/08 20:03:06;;;;;;;;;;;;;;;19.43;44.59;101149.03;4445205;32;19953;-72
2022/02/08 20:05:33;;;;;;;;;;;;;;;18.96;45.51;101148.34;4442759;32;20042;-72
2022/02/08 20:07:59;;;;;;;;;;;;;;;19.17;45.31;101150.84;4439896;32;20508;-72
2022/02/08 20:10:26;;;;;;;;;;;;;;;18.88;45.93;101147.91;4439839;32;19986;-72
2022/02/08 20:12:52;;;;;;;;;;;;;;;18.75;46.15;101135.16;4442579;32;19986;-72
2022/02/08 20:15:19;;;;;;;;;;;;;;;18.92;45.94;101148.50;4443114;32;20005;-72
2022/02/08 20:17:45;;;;;;;;;;;;;;;18.61;46.59;101150.12;4441960;32;21468;-72